createdAt,value
2023-02-12T00:00:52.247Z,36.75
2023-02-12T00:03:19.262Z,54.25
2023-02-12T00:05:46.146Z,48.33
2023-02-12T00:08:14.513Z,44.50
2023-02-12T00:10:43.291Z,59.33
2023-02-12T00:13:11.647Z,42.00
2023-02-12T00:15:40.307Z,43.67
2023-02-12T00:18:07.335Z,47.75
2023-02-12T00:20:34.235Z,37.00
2023-02-12T00:23:01.180Z,41.00
2023-02-12T00:25:28.110Z,29.00
2023-02-12T00:27:55.102Z,47.75
2023-02-12T00:30:22.241Z,30.00
2023-02-12T00:32:49.177Z,33.75
2023-02-12T00:35:16.419Z,35.75
2023-02-12T00:37:43.333Z,34.75
2023-02-12T00:40:10.784Z,37.50
2023-02-12T00:42:37.731Z,36.00
2023-02-12T00:45:04.826Z,36.00
2023-02-12T00:47:31.797Z,36.25
2023-02-12T00:49:58.795Z,30.75
2023-02-12T00:52:27.098Z,39.00
2023-02-12T00:54:54.107Z,27.75
2023-02-12T00:57:20.979Z,30.50
2023-02-12T00:59:48.121Z,28.50
2023-02-12T01:02:15.065Z,32.75
2023-02-12T01:04:42.083Z,33.25
2023-02-12T01:07:09.970Z,30.25
2023-02-12T01:09:37.363Z,22.75
2023-02-12T01:12:04.652Z,38.25
2023-02-12T01:14:31.782Z,32.50
2023-02-12T01:16:58.801Z,24.25
2023-02-12T01:19:25.749Z,31.50
2023-02-12T01:21:52.689Z,37.50
2023-02-12T01:24:19.637Z,31.75
2023-02-12T01:26:46.567Z,29.00
2023-02-12T01:29:13.501Z,30.25
2023-02-12T01:31:40.620Z,42.50
2023-02-12T01:34:08.322Z,33.75
2023-02-12T01:36:35.440Z,28.50
2023-02-12T01:39:03.825Z,32.75
2023-02-12T01:41:34.525Z,41.25
2023-02-12T01:44:21.861Z,35.50
2023-02-12T01:46:55.187Z,41.50
2023-02-12T01:49:26.998Z,33.00
2023-02-12T01:52:07.950Z,34.50
2023-02-12T01:54:36.360Z,35.75
2023-02-12T01:57:06.719Z,31.25
2023-02-12T01:59:35.965Z,41.50
2023-02-12T02:02:04.562Z,31.75
2023-02-12T02:04:37.664Z,38.50
2023-02-12T02:07:24.962Z,44.00
2023-02-12T02:10:11.451Z,43.00
2023-02-12T02:13:16.883Z,48.50
2023-02-12T02:16:07.225Z,42.75
2023-02-12T02:19:22.207Z,30.25
2023-02-12T02:22:22.642Z,34.00
2023-02-12T02:25:25.688Z,37.50
2023-02-12T02:28:20.630Z,33.75
2023-02-12T02:31:05.759Z,41.50
2023-02-12T02:33:32.727Z,30.50
2023-02-12T02:36:25.846Z,52.75
2023-02-12T02:38:57.510Z,32.75
2023-02-12T02:41:44.822Z,27.25
2023-02-12T02:44:22.320Z,29.75
2023-02-12T02:46:52.402Z,39.75
2023-02-12T02:49:50.514Z,34.50
2023-02-12T02:52:25.088Z,34.50
2023-02-12T02:55:06.207Z,37.25
2023-02-12T02:57:41.965Z,27.75
2023-02-12T03:00:35.013Z,28.75
2023-02-12T03:03:30.726Z,35.50
2023-02-12T03:06:05.522Z,31.25
2023-02-12T03:08:40.270Z,32.50
2023-02-12T03:11:28.837Z,28.00
2023-02-12T03:14:12.520Z,31.00
2023-02-12T03:16:55.941Z,31.75
2023-02-12T03:19:36.558Z,35.75
2023-02-12T03:22:20.555Z,40.50
2023-02-12T03:25:12.324Z,41.00
2023-02-12T03:27:44.859Z,31.00
2023-02-12T03:30:12.981Z,30.75
2023-02-12T03:32:55.247Z,34.75
2023-02-12T03:35:29.301Z,36.00
2023-02-12T03:38:21.994Z,29.00
2023-02-12T03:41:03.356Z,34.00
2023-02-12T03:43:54.064Z,29.75
2023-02-12T03:46:26.206Z,35.00
2023-02-12T03:49:04.911Z,31.75
2023-02-12T03:51:45.008Z,29.50
2023-02-12T03:54:16.723Z,30.00
2023-02-12T03:56:53.697Z,28.25
2023-02-12T03:59:22.815Z,29.00
2023-02-12T04:01:53.167Z,29.25
2023-02-12T04:04:21.617Z,22.75
2023-02-12T04:06:50.669Z,18.75
2023-02-12T04:09:18.456Z,27.50
2023-02-12T04:12:15.994Z,24.75
2023-02-12T04:15:07.056Z,15.75
2023-02-12T04:17:46.837Z,35.00
2023-02-12T04:20:19.934Z,31.00
2023-02-12T04:23:12.924Z,23.50
2023-02-12T04:26:02.669Z,31.00
2023-02-12T04:28:58.777Z,32.00
2023-02-12T04:31:53.452Z,31.75
2023-02-12T04:35:01.618Z,27.75
2023-02-12T04:37:43.490Z,41.75
2023-02-12T04:40:14.718Z,24.00
2023-02-12T04:42:53.059Z,26.25
2023-02-12T04:45:38.458Z,18.75
2023-02-12T04:48:06.916Z,25.25
2023-02-12T04:50:43.168Z,30.25
2023-02-12T04:53:11.222Z,30.25
2023-02-12T04:55:38.342Z,21.25
2023-02-12T04:58:06.780Z,20.00
2023-02-12T05:00:34.285Z,26.75
2023-02-12T05:03:01.527Z,27.00
2023-02-12T05:05:28.494Z,28.00
2023-02-12T05:07:55.468Z,30.25
2023-02-12T05:10:22.392Z,25.25
2023-02-12T05:12:52.943Z,29.00
2023-02-12T05:15:20.581Z,21.50
2023-02-12T05:17:47.657Z,28.00
2023-02-12T05:20:14.739Z,24.50
2023-02-12T05:22:42.004Z,25.25
2023-02-12T05:25:08.915Z,27.25
2023-02-12T05:27:35.954Z,18.00
2023-02-12T05:30:02.855Z,14.00
2023-02-12T05:32:29.801Z,16.75
2023-02-12T05:34:56.696Z,18.50
2023-02-12T05:37:23.635Z,14.25
2023-02-12T05:39:50.844Z,18.00
2023-02-12T05:42:17.777Z,18.25
2023-02-12T05:52:39.842Z,27.50
2023-02-12T05:55:07.326Z,17.75
2023-02-12T05:57:34.315Z,21.25
2023-02-12T06:00:01.691Z,21.75
2023-02-12T06:02:29.468Z,25.00
2023-02-12T06:04:56.381Z,20.00
2023-02-12T06:07:23.293Z,23.00
2023-02-12T06:09:50.924Z,22.25
2023-02-12T06:12:17.853Z,16.00
2023-02-12T06:14:44.771Z,12.75
2023-02-12T06:17:11.934Z,13.75
2023-02-12T06:19:39.172Z,18.50
2023-02-12T06:22:06.507Z,12.75
2023-02-12T06:24:33.546Z,13.50
2023-02-12T06:27:00.476Z,14.25
2023-02-12T06:29:27.384Z,10.50
2023-02-12T06:31:54.431Z,10.50
2023-02-12T06:34:24.262Z,9.00
2023-02-12T06:36:51.225Z,9.50
2023-02-12T06:39:18.525Z,9.00
2023-02-12T06:41:45.570Z,13.50
2023-02-12T06:44:13.484Z,15.50
2023-02-12T06:46:40.713Z,10.00
2023-02-12T06:49:08.098Z,10.25
2023-02-12T06:51:36.609Z,16.00
2023-02-12T06:54:03.554Z,20.75
2023-02-12T06:56:30.467Z,16.50
2023-02-12T06:58:59.829Z,18.50
2023-02-12T07:01:28.738Z,21.75
2023-02-12T07:04:00.907Z,27.50
2023-02-12T07:06:28.999Z,25.25
2023-02-12T07:08:56.840Z,24.50
2023-02-12T07:11:28.016Z,21.25
2023-02-12T07:13:55.084Z,25.50
2023-02-12T07:16:22.542Z,16.50
2023-02-12T07:18:49.595Z,21.50
2023-02-12T07:21:17.422Z,18.50
2023-02-12T07:23:51.387Z,20.25
2023-02-12T07:26:20.244Z,27.00
2023-02-12T07:28:47.405Z,23.25
2023-02-12T07:31:17.294Z,26.00
2023-02-12T07:33:45.231Z,22.50
2023-02-12T07:36:18.629Z,18.50
2023-02-12T07:38:46.139Z,17.25
2023-02-12T07:41:21.755Z,13.00
2023-02-12T07:43:50.084Z,21.00
2023-02-12T07:46:20.940Z,11.50
2023-02-12T07:48:51.719Z,9.50
2023-02-12T07:51:19.579Z,9.25
2023-02-12T07:53:46.549Z,10.00
2023-02-12T07:56:17.381Z,14.75
2023-02-12T07:58:46.991Z,14.00
2023-02-12T08:01:28.850Z,8.75
2023-02-12T08:04:00.204Z,12.75
2023-02-12T08:06:29.973Z,9.25
2023-02-12T08:08:59.428Z,16.75
2023-02-12T08:11:28.798Z,12.75
2023-02-12T08:13:56.744Z,9.25
2023-02-12T08:16:25.869Z,12.00
2023-02-12T08:18:53.480Z,7.50
2023-02-12T08:21:26.730Z,9.00
2023-02-12T08:23:58.543Z,4.50
2023-02-12T08:26:29.250Z,8.00
2023-02-12T08:29:00.048Z,6.75
2023-02-12T08:31:30.147Z,10.00
2023-02-12T08:33:57.556Z,6.25
2023-02-12T08:36:28.129Z,9.00
2023-02-12T08:38:58.352Z,10.00
2023-02-12T08:41:27.877Z,10.00
2023-02-12T08:43:57.331Z,17.00
2023-02-12T08:46:30.019Z,10.50
2023-02-12T08:49:00.263Z,11.75
2023-02-12T08:51:30.723Z,10.50
2023-02-12T08:54:03.905Z,10.00
2023-02-12T08:56:34.076Z,9.00
2023-02-12T08:59:05.124Z,9.75
2023-02-12T09:01:34.338Z,6.00
2023-02-12T09:04:01.658Z,8.50
2023-02-12T09:06:29.076Z,4.75
2023-02-12T09:08:56.311Z,5.50
2023-02-12T09:11:32.677Z,10.25
2023-02-12T09:14:03.322Z,7.50
2023-02-12T09:16:32.332Z,9.00
2023-02-12T09:18:59.453Z,9.25
2023-02-12T09:21:26.619Z,10.50
2023-02-12T09:23:54.079Z,17.25
2023-02-12T09:26:23.654Z,14.25
2023-02-12T09:28:51.251Z,17.00
2023-02-12T09:31:23.384Z,11.25
2023-02-12T09:33:53.353Z,10.75
2023-02-12T09:36:23.022Z,8.00
2023-02-12T09:38:50.704Z,9.25
2023-02-12T09:41:55.087Z,11.50
2023-02-12T09:44:32.973Z,11.00
2023-02-12T09:47:29.633Z,11.00
2023-02-12T09:50:11.374Z,9.75
2023-02-12T09:52:38.649Z,8.50
2023-02-12T09:55:06.298Z,9.75
2023-02-12T09:57:38.228Z,11.50
2023-02-12T10:00:09.513Z,12.50
2023-02-12T10:02:38.381Z,11.75
2023-02-12T10:05:14.920Z,15.25
2023-02-12T10:08:22.143Z,7.50
2023-02-12T10:11:30.103Z,18.00
2023-02-12T10:14:16.402Z,15.75
2023-02-12T10:17:06.451Z,11.25
2023-02-12T10:19:49.409Z,14.75
2023-02-12T10:22:57.314Z,9.00
2023-02-12T10:25:41.367Z,14.25
2023-02-12T10:28:13.999Z,13.75
2023-02-12T10:30:44.607Z,14.00
2023-02-12T10:33:19.782Z,16.75
2023-02-12T10:36:04.237Z,13.75
2023-02-12T10:38:38.700Z,11.00
2023-02-12T10:41:05.643Z,14.75
2023-02-12T10:43:32.896Z,13.25
2023-02-12T10:45:59.856Z,15.00
2023-02-12T10:48:40.952Z,15.00
2023-02-12T10:51:07.868Z,22.50
2023-02-12T10:53:55.082Z,24.00
2023-02-12T10:56:26.413Z,23.25
2023-02-12T10:58:55.918Z,19.75
2023-02-12T11:01:28.364Z,21.50
2023-02-12T11:03:57.280Z,15.75
2023-02-12T11:06:27.942Z,17.75
2023-02-12T11:08:55.844Z,15.00
2023-02-12T11:11:31.387Z,16.75
2023-02-12T11:14:20.946Z,21.25
2023-02-12T11:16:57.021Z,24.75
2023-02-12T11:19:32.264Z,15.25
2023-02-12T11:22:10.684Z,11.00
2023-02-12T11:24:38.523Z,15.50
2023-02-12T11:27:29.093Z,14.50
2023-02-12T11:30:21.300Z,7.75
2023-02-12T11:32:49.696Z,16.25
2023-02-12T11:35:25.338Z,20.00
2023-02-12T11:37:56.153Z,19.50
2023-02-12T11:40:29.469Z,22.75
2023-02-12T11:42:59.538Z,12.00
2023-02-12T11:45:42.243Z,14.25
2023-02-12T11:48:38.094Z,16.50
2023-02-12T11:51:09.404Z,15.75
2023-02-12T11:53:41.933Z,16.50
2023-02-12T11:56:12.710Z,15.50
2023-02-12T11:58:40.630Z,12.75
2023-02-12T12:01:29.416Z,18.50
2023-02-12T12:04:05.431Z,17.75
2023-02-12T12:07:07.441Z,19.25
2023-02-12T12:10:01.015Z,16.00
2023-02-12T12:12:36.351Z,16.50
2023-02-12T12:15:31.641Z,21.50
2023-02-12T12:18:32.967Z,16.50
2023-02-12T12:21:12.641Z,18.00
2023-02-12T12:23:57.514Z,17.75
2023-02-12T12:26:30.273Z,16.00
2023-02-12T12:29:22.260Z,11.50
2023-02-12T12:31:54.142Z,15.25
2023-02-12T12:34:25.360Z,20.00
2023-02-12T12:37:32.866Z,15.00
2023-02-12T12:40:44.893Z,20.75
2023-02-12T12:43:24.476Z,20.50
2023-02-12T12:45:59.190Z,21.00
2023-02-12T12:48:33.267Z,26.25
2023-02-12T12:51:02.874Z,25.50
2023-02-12T12:54:06.935Z,22.50
2023-02-12T12:57:11.882Z,19.25
2023-02-12T13:00:18.070Z,18.25
2023-02-12T13:03:05.665Z,15.75
2023-02-12T13:06:10.523Z,14.75
2023-02-12T13:09:07.873Z,24.75
2023-02-12T13:11:34.722Z,15.00
2023-02-12T13:14:28.111Z,15.25
2023-02-12T13:17:25.965Z,17.00
2023-02-12T13:20:01.718Z,12.00
2023-02-12T13:22:34.468Z,11.75
2023-02-12T13:25:42.794Z,10.00
2023-02-12T13:28:25.116Z,10.75
2023-02-12T13:30:55.318Z,8.75
2023-02-12T13:33:26.153Z,7.00
2023-02-12T13:35:59.479Z,7.00
2023-02-12T13:38:32.489Z,8.75
2023-02-12T13:41:06.843Z,6.50
2023-02-12T13:43:39.424Z,7.50
2023-02-12T13:46:17.385Z,8.00
2023-02-12T13:49:01.780Z,11.00
2023-02-12T13:51:44.270Z,11.25
2023-02-12T13:54:19.784Z,9.25
2023-02-12T13:57:01.897Z,8.25
2023-02-12T13:59:55.474Z,3.50
2023-02-12T14:02:34.726Z,6.50
2023-02-12T14:05:21.880Z,7.25
2023-02-12T14:07:56.561Z,5.75
2023-02-12T14:10:41.051Z,7.00
2023-02-12T14:13:22.412Z,8.00
2023-02-12T14:15:52.844Z,6.50
2023-02-12T14:18:30.820Z,9.00
2023-02-12T14:21:10.761Z,7.00
2023-02-12T14:23:44.815Z,6.25
2023-02-12T14:26:13.306Z,8.75
2023-02-12T14:29:00.550Z,8.25
2023-02-12T14:31:27.523Z,11.00
2023-02-12T14:34:06.681Z,18.50
2023-02-12T14:36:33.631Z,9.00
2023-02-12T14:39:22.765Z,7.50
2023-02-12T14:42:09.885Z,9.50
2023-02-12T14:44:36.769Z,14.50
2023-02-12T14:47:17.558Z,17.25
2023-02-12T14:49:50.225Z,15.00
2023-02-12T14:52:22.836Z,16.50
2023-02-12T14:55:05.569Z,15.00
2023-02-12T14:57:40.209Z,12.00
2023-02-12T15:00:19.331Z,11.75
2023-02-12T15:03:15.535Z,11.25
2023-02-12T15:05:56.641Z,7.25
2023-02-12T15:08:29.530Z,6.25
2023-02-12T15:11:14.946Z,5.75
2023-02-12T15:13:41.773Z,7.00
2023-02-12T15:16:14.069Z,6.00
2023-02-12T15:18:40.916Z,3.00
2023-02-12T15:21:21.159Z,2.50
2023-02-12T15:24:00.580Z,6.50
2023-02-12T15:26:29.674Z,4.50
2023-02-12T15:28:56.964Z,5.75
2023-02-12T15:31:30.303Z,6.00
2023-02-12T15:33:59.784Z,3.00
2023-02-12T15:36:30.219Z,3.50
2023-02-12T15:39:06.705Z,1.50
2023-02-12T15:41:33.621Z,0.50
2023-02-12T15:44:02.232Z,2.00
2023-02-12T15:46:30.902Z,2.25
2023-02-12T15:48:58.287Z,3.50
2023-02-12T15:51:35.091Z,18.75
2023-02-12T15:54:06.090Z,18.75
2023-02-12T15:56:36.476Z,9.25
2023-02-12T15:59:04.154Z,20.75
2023-02-12T16:01:35.671Z,15.00
2023-02-12T16:04:07.967Z,13.00
2023-02-12T16:06:37.096Z,37.00
2023-02-12T16:09:04.002Z,56.33
2023-02-12T16:11:32.866Z,49.33
2023-02-12T16:14:02.842Z,44.00
2023-02-12T16:16:50.927Z,33.67
2023-02-12T16:19:33.290Z,23.75
2023-02-12T16:22:06.231Z,83.00
2023-02-12T16:24:45.747Z,79.67
2023-02-12T16:27:15.671Z,66.33
2023-02-12T16:29:48.603Z,63.33
2023-02-12T16:32:36.782Z,62.00
2023-02-12T16:35:09.855Z,55.33
2023-02-12T16:37:36.997Z,33.00
2023-02-12T16:40:22.682Z,33.00
2023-02-12T16:42:49.495Z,23.33
2023-02-12T16:45:37.766Z,20.33
2023-02-12T16:48:12.424Z,17.25
2023-02-12T16:50:49.875Z,16.75
2023-02-12T16:53:27.750Z,11.50
2023-02-12T16:55:55.105Z,8.00
2023-02-12T16:58:22.387Z,12.00
2023-02-12T17:00:50.135Z,6.50
2023-02-12T17:03:17.689Z,12.50
2023-02-12T17:05:49.588Z,12.25
2023-02-12T17:08:18.985Z,15.00
2023-02-12T17:10:46.137Z,2.50
2023-02-12T17:13:13.041Z,8.50
2023-02-12T17:16:06.761Z,9.00
2023-02-12T17:18:36.132Z,9.00
2023-02-12T17:21:07.680Z,7.50
2023-02-12T17:23:35.363Z,8.50
2023-02-12T17:26:02.373Z,6.00
2023-02-12T17:28:30.169Z,6.00
2023-02-12T17:30:57.877Z,45.67
2023-02-12T17:33:25.147Z,45.67
2023-02-12T17:35:52.037Z,32.33
2023-02-12T17:38:19.008Z,20.00
2023-02-12T17:40:46.000Z,22.33
2023-02-12T17:43:12.912Z,18.00
2023-02-12T17:45:43.615Z,17.00
2023-02-12T17:48:11.708Z,11.67
2023-02-12T17:50:39.441Z,15.50
2023-02-12T17:53:06.958Z,5.75
2023-02-12T17:55:34.250Z,29.00
2023-02-12T17:58:03.375Z,22.00
2023-02-12T18:00:30.485Z,26.00
2023-02-12T18:02:57.422Z,39.00
2023-02-12T18:05:24.617Z,66.67
2023-02-12T18:07:51.592Z,52.33
2023-02-12T18:10:18.655Z,55.33
2023-02-12T18:12:45.556Z,35.00
2023-02-12T18:15:13.750Z,41.33
2023-02-12T18:17:42.932Z,52.33
2023-02-12T18:20:11.965Z,46.67
2023-02-12T18:22:38.949Z,43.33
2023-02-12T18:25:06.428Z,39.00
2023-02-12T18:27:33.417Z,31.33
2023-02-12T18:30:00.316Z,35.67
2023-02-12T18:32:27.242Z,29.67
2023-02-12T18:34:54.506Z,17.67
2023-02-12T18:37:21.433Z,36.00
2023-02-12T18:39:48.428Z,26.33
2023-02-12T18:42:15.312Z,41.67
2023-02-12T18:44:43.059Z,47.67
2023-02-12T18:47:10.057Z,37.33
2023-02-12T18:49:36.998Z,29.00
2023-02-12T18:52:04.054Z,30.33
2023-02-12T18:54:33.321Z,18.33
2023-02-12T18:57:00.240Z,17.67
2023-02-12T18:59:27.493Z,18.33
2023-02-12T19:01:55.232Z,16.33
2023-02-12T19:04:24.963Z,14.33
2023-02-12T19:06:53.930Z,16.00
2023-02-12T19:09:24.547Z,7.67
2023-02-12T19:11:54.687Z,16.00
2023-02-12T19:14:23.670Z,11.00
2023-02-12T19:16:51.191Z,12.00
2023-02-12T19:19:23.002Z,8.67
2023-02-12T19:21:50.199Z,14.00
2023-02-12T19:24:17.630Z,18.67
2023-02-12T19:26:45.445Z,11.33
2023-02-12T19:29:13.575Z,59.33
2023-02-12T19:31:44.699Z,51.00
2023-02-12T19:34:20.018Z,30.33
2023-02-12T19:36:48.843Z,24.67
2023-02-12T19:39:19.213Z,20.33
2023-02-12T19:41:47.283Z,19.67
2023-02-12T19:44:19.367Z,19.67
2023-02-12T19:46:47.452Z,11.33
2023-02-12T19:49:20.915Z,15.00
2023-02-12T19:51:48.859Z,14.67
2023-02-12T19:54:17.188Z,14.33
2023-02-12T19:56:44.717Z,9.67
2023-02-12T19:59:17.578Z,12.33
2023-02-12T20:01:46.363Z,17.67
2023-02-12T20:04:15.810Z,17.33
2023-02-12T20:06:43.693Z,30.33
2023-02-12T20:09:11.300Z,31.67
2023-02-12T20:11:39.423Z,19.67
2023-02-12T20:14:11.005Z,31.67
2023-02-12T20:16:41.757Z,51.33
2023-02-12T20:19:18.681Z,77.50
2023-02-12T20:21:46.066Z,55.00
2023-02-12T20:24:13.165Z,44.33
2023-02-12T20:26:40.141Z,41.00
2023-02-12T20:29:07.145Z,26.00
2023-02-12T20:31:36.406Z,23.67
2023-02-12T20:34:06.380Z,21.00
2023-02-12T20:36:36.883Z,12.67
2023-02-12T20:39:05.748Z,12.33
2023-02-12T20:41:35.201Z,16.00
2023-02-12T20:44:02.216Z,14.00
2023-02-12T20:46:29.200Z,13.33
2023-02-12T20:48:57.721Z,16.67
2023-02-12T20:51:26.878Z,5.67
2023-02-12T20:53:55.575Z,14.33
2023-02-12T20:56:28.258Z,11.25
2023-02-12T20:58:55.410Z,21.67
2023-02-12T21:01:34.909Z,18.00
2023-02-12T21:04:05.801Z,18.00
2023-02-12T21:06:32.906Z,20.00
2023-02-12T21:09:00.175Z,12.00
2023-02-12T21:11:28.189Z,23.67
2023-02-12T21:13:59.191Z,13.00
2023-02-12T21:16:37.694Z,21.33
2023-02-12T21:19:04.954Z,15.67
2023-02-12T21:21:34.492Z,11.25
2023-02-12T21:24:03.366Z,10.25
2023-02-12T21:26:31.841Z,12.00
2023-02-12T21:29:01.790Z,10.67
2023-02-12T21:31:32.027Z,11.25
2023-02-12T21:34:00.648Z,12.50
2023-02-12T21:36:31.117Z,10.50
2023-02-12T21:38:58.385Z,9.00
2023-02-12T21:41:30.166Z,16.00
2023-02-12T21:43:59.653Z,17.00
2023-02-12T21:46:26.852Z,17.67
2023-02-12T21:48:54.547Z,9.00
2023-02-12T21:51:25.291Z,18.33
2023-02-12T21:53:55.472Z,16.00
2023-02-12T21:56:23.331Z,27.33
2023-02-12T21:58:50.910Z,20.25
2023-02-12T22:01:21.184Z,19.25
2023-02-12T22:03:48.171Z,16.50
2023-02-12T22:06:20.127Z,13.50
2023-02-12T22:08:47.267Z,16.75
2023-02-12T22:11:15.010Z,11.00
2023-02-12T22:13:42.241Z,10.25
2023-02-12T22:16:24.498Z,20.67
2023-02-12T22:18:56.696Z,62.33
2023-02-12T22:21:25.954Z,39.00
2023-02-12T22:23:53.969Z,35.00
2023-02-12T22:26:25.405Z,40.67
2023-02-12T22:29:14.251Z,37.00
2023-02-12T22:31:42.488Z,29.67
2023-02-12T22:34:15.569Z,30.67
2023-02-12T22:36:43.434Z,29.00
2023-02-12T22:39:13.189Z,29.67
2023-02-12T22:41:42.183Z,23.67
2023-02-12T22:44:11.481Z,8.33
2023-02-12T22:46:38.619Z,13.50
2023-02-12T22:49:05.719Z,17.00
2023-02-12T22:51:34.757Z,15.50
2023-02-12T22:54:01.768Z,22.33
2023-02-12T22:56:29.271Z,17.00
2023-02-12T22:58:57.821Z,20.67
2023-02-12T23:01:25.433Z,14.75
2023-02-12T23:03:52.856Z,20.50
2023-02-12T23:06:23.896Z,12.50
2023-02-12T23:08:52.781Z,14.00
2023-02-12T23:11:20.041Z,14.00
2023-02-12T23:13:47.878Z,5.75
2023-02-12T23:16:15.058Z,16.75
2023-02-12T23:18:42.203Z,11.25
2023-02-12T23:21:09.457Z,12.75
2023-02-12T23:23:36.392Z,7.75
2023-02-12T23:26:03.373Z,8.50
2023-02-12T23:28:33.428Z,15.25
2023-02-12T23:31:00.841Z,31.00
2023-02-12T23:33:28.050Z,20.00
2023-02-12T23:35:54.944Z,23.00
2023-02-12T23:38:22.036Z,29.33
2023-02-12T23:40:50.388Z,18.33
2023-02-12T23:43:17.321Z,22.00
2023-02-12T23:45:45.124Z,29.67
2023-02-12T23:48:12.663Z,30.33
2023-02-12T23:50:40.057Z,25.33
2023-02-12T23:53:07.232Z,28.67
2023-02-12T23:55:36.976Z,22.00
2023-02-12T23:58:04.951Z,14.33
